createdAt,value
2022-08-05T00:04:01.648Z,97389.09
2022-08-05T00:08:19.813Z,97392.22
2022-08-05T00:12:30.543Z,97393.75
2022-08-05T00:16:36.215Z,97388.91
2022-08-05T00:20:56.686Z,97382.00
2022-08-05T00:25:01.808Z,97390.19
2022-08-05T00:29:07.946Z,97379.25
2022-08-05T00:34:42.474Z,97374.41
2022-08-05T00:37:52.324Z,97372.50
2022-08-05T00:41:58.831Z,97372.16
2022-08-05T00:46:02.892Z,97362.50
2022-08-05T00:50:09.238Z,97368.03
2022-08-05T00:54:13.665Z,97368.50
2022-08-05T00:58:19.186Z,97369.78
2022-08-05T01:02:24.410Z,97373.72
2022-08-05T01:06:32.684Z,97366.69
2022-08-05T01:10:52.376Z,97364.22
2022-08-05T01:15:05.257Z,97358.22
2022-08-05T01:19:56.933Z,97357.09
2022-08-05T01:24:13.276Z,97354.34
2022-08-05T01:28:26.322Z,97350.34
2022-08-05T01:32:33.862Z,97353.69
2022-08-05T01:36:46.918Z,97348.03
2022-08-05T01:40:52.513Z,97353.03
2022-08-05T01:44:59.205Z,97351.06
2022-08-05T01:49:23.156Z,97352.81
2022-08-05T01:53:57.251Z,97356.41
2022-08-05T01:58:10.299Z,97352.63
2022-08-05T02:02:28.417Z,97355.97
2022-08-05T02:06:37.370Z,97345.47
2022-08-05T02:10:46.119Z,97340.63
2022-08-05T02:14:55.216Z,97342.13
2022-08-05T02:19:07.024Z,97341.22
2022-08-05T02:23:13.583Z,97348.03
2022-08-05T02:27:20.748Z,97344.47
2022-08-05T02:31:37.052Z,97344.34
2022-08-05T02:35:57.504Z,97339.19
2022-08-05T02:40:06.889Z,97349.66
2022-08-05T02:44:15.767Z,97345.88
2022-08-05T02:48:20.934Z,97342.63
2022-08-05T02:52:35.212Z,97345.50
2022-08-05T02:56:40.132Z,97338.59
2022-08-05T03:00:50.391Z,97343.91
2022-08-05T03:04:56.638Z,97333.31
2022-08-05T03:09:02.070Z,97340.22
2022-08-05T03:13:16.744Z,97338.59
2022-08-05T03:17:20.764Z,97342.31
2022-08-05T03:21:28.857Z,97333.78
2022-08-05T03:26:04.859Z,97335.88
2022-08-05T03:30:07.222Z,97336.88
2022-08-05T03:34:11.917Z,97331.03
2022-08-05T03:38:15.804Z,97330.44
2022-08-05T03:42:20.449Z,97325.59
2022-08-05T03:46:26.853Z,97321.81
2022-08-05T03:50:43.180Z,97334.47
2022-08-05T03:55:00.072Z,97340.22
2022-08-05T03:59:23.129Z,97331.09
2022-08-05T04:03:31.164Z,97347.09
2022-08-05T04:07:46.769Z,97340.88
2022-08-05T04:12:01.562Z,97348.69
2022-08-05T04:16:08.010Z,97343.84
2022-08-05T04:20:21.313Z,97340.97
2022-08-05T04:24:27.749Z,97340.97
2022-08-05T04:28:31.826Z,97340.50
2022-08-05T04:32:37.754Z,97331.91
2022-08-05T04:36:46.108Z,97344.66
2022-08-05T04:40:55.179Z,97341.13
2022-08-05T04:44:58.826Z,97354.47
2022-08-05T04:49:06.212Z,97358.88
2022-08-05T04:53:19.346Z,97359.78
2022-08-05T04:57:24.249Z,97358.66
2022-08-05T05:02:07.117Z,97366.22
2022-08-05T05:06:35.807Z,97375.44
2022-08-05T05:10:23.743Z,97368.78
2022-08-05T05:14:31.462Z,97375.31
2022-08-05T05:18:35.945Z,97364.38
2022-08-05T05:22:43.944Z,97369.06
2022-08-05T05:26:47.993Z,97373.81
2022-08-05T05:30:55.795Z,97374.03
2022-08-05T05:34:59.015Z,97379.53
2022-08-05T05:39:04.503Z,97370.72
2022-08-05T05:43:08.561Z,97373.56
2022-08-05T05:47:21.653Z,97371.13
2022-08-05T05:51:27.888Z,97374.53
2022-08-05T05:55:51.589Z,97371.03
2022-08-05T05:59:57.731Z,97382.13
2022-08-05T06:04:03.727Z,97382.66
2022-08-05T06:08:07.675Z,97376.47
2022-08-05T06:12:14.200Z,97380.66
2022-08-05T06:16:28.742Z,97382.19
2022-08-05T06:20:35.685Z,97381.88
2022-08-05T06:24:46.652Z,97390.06
2022-08-05T06:28:52.809Z,97378.94
2022-08-05T06:32:56.642Z,97385.78
2022-08-05T06:37:00.499Z,97395.44
2022-08-05T06:41:05.298Z,97394.63
2022-08-05T06:45:20.999Z,97389.97
2022-08-05T06:50:00.552Z,97391.41
2022-08-05T06:53:53.468Z,97391.28
2022-08-05T06:58:11.753Z,97404.66
2022-08-05T07:02:22.824Z,97403.50
2022-08-05T07:06:27.709Z,97406.47
2022-08-05T07:10:32.619Z,97401.72
2022-08-05T07:14:54.196Z,97407.72
2022-08-05T07:18:58.833Z,97396.53
2022-08-05T07:23:03.009Z,97405.34
2022-08-05T07:27:08.835Z,97405.16
2022-08-05T07:31:41.032Z,97406.19
2022-08-05T07:36:04.336Z,97407.59
2022-08-05T07:40:32.558Z,97409.00
2022-08-05T07:44:35.752Z,97399.41
2022-08-05T07:49:02.810Z,97405.00
2022-08-05T07:53:05.938Z,97401.00
2022-08-05T07:57:22.860Z,97399.78
2022-08-05T08:01:34.563Z,97410.47
2022-08-05T08:05:39.569Z,97401.53
2022-08-05T08:09:44.827Z,97404.38
2022-08-05T08:14:01.146Z,97407.81
2022-08-05T08:18:09.733Z,97410.06
2022-08-05T08:22:17.766Z,97407.97
2022-08-05T08:26:29.354Z,97409.38
2022-08-05T08:30:40.703Z,97404.06
2022-08-05T08:34:51.168Z,97408.03
2022-08-05T08:38:55.996Z,97409.16
2022-08-05T08:45:19.384Z,97412.91
2022-08-05T08:48:06.745Z,97406.63
2022-08-05T08:52:04.149Z,97406.88
2022-08-05T08:56:10.161Z,97413.28
2022-08-05T09:00:15.917Z,97424.94
2022-08-05T09:04:23.187Z,97423.44
2022-08-05T09:08:34.738Z,97423.22
2022-08-05T09:12:40.404Z,97427.31
2022-08-05T09:16:49.021Z,97415.75
2022-08-05T09:20:52.452Z,97419.56
2022-08-05T09:25:00.331Z,97413.91
2022-08-05T09:29:06.740Z,97418.19
2022-08-05T09:33:15.205Z,97418.03
2022-08-05T09:38:12.173Z,97421.53
2022-08-05T09:41:59.828Z,97410.28
2022-08-05T09:46:06.960Z,97412.69
2022-08-05T09:50:18.015Z,97417.63
2022-08-05T09:54:37.682Z,97408.72
2022-08-05T09:58:43.963Z,97409.28
2022-08-05T10:02:54.884Z,97406.06
2022-08-05T10:07:06.128Z,97407.78
2022-08-05T10:11:31.305Z,97397.50
2022-08-05T10:15:42.105Z,97401.47
2022-08-05T10:20:04.207Z,97389.09
2022-08-05T10:24:14.017Z,97393.81
2022-08-05T10:28:30.307Z,97394.19
2022-08-05T10:32:53.604Z,97389.88
2022-08-05T10:36:58.247Z,97399.50
2022-08-05T10:41:12.458Z,97397.72
2022-08-05T10:45:23.363Z,97398.22
2022-08-05T10:49:49.005Z,97402.97
2022-08-05T10:54:01.618Z,97410.94
2022-08-05T10:58:11.860Z,97401.72
2022-08-05T11:02:37.877Z,97400.56
2022-08-05T11:07:08.446Z,97397.13
2022-08-05T11:11:44.426Z,97393.88
2022-08-05T11:16:22.918Z,97398.59
2022-08-05T11:20:44.758Z,97391.59
2022-08-05T11:25:01.552Z,97397.84
2022-08-05T11:29:38.279Z,97394.69
2022-08-05T11:33:55.862Z,97390.38
2022-08-05T11:38:28.357Z,97398.00
2022-08-05T11:42:27.939Z,97393.03
2022-08-05T11:46:34.447Z,97389.81
2022-08-05T11:50:42.633Z,97397.78
2022-08-05T11:54:55.016Z,97402.31
2022-08-05T11:58:59.097Z,97397.53
2022-08-05T12:03:29.086Z,97398.88
2022-08-05T12:08:08.669Z,97392.69
2022-08-05T12:12:02.601Z,97384.03
2022-08-05T12:16:15.028Z,97387.78
2022-08-05T12:20:27.758Z,97381.38
2022-08-05T12:24:43.730Z,97378.41
2022-08-05T12:28:53.281Z,97372.63
2022-08-05T12:33:07.278Z,97370.25
2022-08-05T12:37:22.543Z,97364.41
2022-08-05T12:41:43.575Z,97367.25
2022-08-05T12:45:55.137Z,97358.41
2022-08-05T12:50:04.494Z,97354.88
2022-08-05T12:54:16.576Z,97350.56
2022-08-05T12:58:49.311Z,97349.34
2022-08-05T13:02:55.670Z,97356.13
2022-08-05T13:07:00.580Z,97358.00
2022-08-05T13:11:05.101Z,97343.25
2022-08-05T13:15:16.561Z,97338.94
2022-08-05T13:19:52.196Z,97335.97
2022-08-05T13:23:52.392Z,97336.56
2022-08-05T13:27:57.607Z,97321.28
2022-08-05T13:32:04.282Z,97318.16
2022-08-05T13:36:09.157Z,97316.41
2022-08-05T13:40:35.584Z,97314.22
2022-08-05T13:44:39.136Z,97317.34
2022-08-05T13:48:57.850Z,97307.78
2022-08-05T13:53:03.471Z,97307.09
2022-08-05T13:57:13.002Z,97308.47
2022-08-05T14:01:18.730Z,97296.25
2022-08-05T14:05:29.269Z,97298.66
2022-08-05T14:09:47.053Z,97296.13
2022-08-05T14:13:54.920Z,97285.53
2022-08-05T14:18:00.692Z,97287.72
2022-08-05T14:22:09.901Z,97288.00
2022-08-05T14:26:35.792Z,97296.72
2022-08-05T14:30:39.348Z,97289.44
2022-08-05T14:34:49.381Z,97292.88
2022-08-05T14:38:57.513Z,97294.88
2022-08-05T14:43:01.071Z,97290.19
2022-08-05T14:47:04.746Z,97277.81
2022-08-05T14:51:15.453Z,97272.06
2022-08-05T14:55:21.203Z,97275.69
2022-08-05T14:59:25.329Z,97281.63
2022-08-05T15:03:39.037Z,97271.28
2022-08-05T15:08:06.681Z,97273.22
2022-08-05T15:12:16.543Z,97272.88
2022-08-05T15:16:30.259Z,97264.81
2022-08-05T15:20:33.333Z,97261.03
2022-08-05T15:24:39.742Z,97259.53
2022-08-05T15:28:44.879Z,97267.34
2022-08-05T15:32:55.678Z,97263.34
2022-08-05T15:37:03.463Z,97257.53
2022-08-05T15:41:21.129Z,97268.41
2022-08-05T15:45:38.538Z,97272.84
2022-08-05T15:49:56.605Z,97272.75
2022-08-05T15:54:02.213Z,97275.69
2022-08-05T15:58:16.507Z,97284.06
2022-08-05T16:02:25.415Z,97294.16
2022-08-05T16:06:30.062Z,97285.03
2022-08-05T16:10:33.764Z,97290.91
2022-08-05T16:14:37.258Z,97288.06
2022-08-05T16:18:52.747Z,97289.63
2022-08-05T16:22:57.450Z,97282.41
2022-08-05T16:27:02.525Z,97279.47
2022-08-05T16:31:07.525Z,97279.59
2022-08-05T16:35:15.957Z,97272.56
2022-08-05T16:39:21.692Z,97281.72
2022-08-05T16:43:44.833Z,97280.34
2022-08-05T16:47:54.390Z,97283.97
2022-08-05T16:52:02.844Z,97279.44
2022-08-05T16:56:08.549Z,97273.75
2022-08-05T17:00:33.992Z,97278.22
2022-08-05T17:04:38.108Z,97272.44
2022-08-05T17:08:53.111Z,97279.66
2022-08-05T17:12:57.849Z,97271.38
2022-08-05T17:17:02.692Z,97274.69
2022-08-05T17:21:06.126Z,97275.25
2022-08-05T17:25:33.910Z,97280.91
2022-08-05T17:29:40.969Z,97278.22
2022-08-05T17:33:48.472Z,97286.13
2022-08-05T17:37:54.258Z,97290.59
2022-08-05T17:42:19.843Z,97292.16
2022-08-05T17:46:30.984Z,97286.16
2022-08-05T17:50:34.278Z,97292.66
2022-08-05T17:54:38.123Z,97309.06
2022-08-05T17:58:43.172Z,97307.63
2022-08-05T18:02:48.725Z,97321.00
2022-08-05T18:06:52.097Z,97319.84
2022-08-05T18:10:56.227Z,97319.25
2022-08-05T18:15:02.519Z,97326.41
2022-08-05T18:19:07.514Z,97326.09
2022-08-05T18:23:12.139Z,97325.78
2022-08-05T18:27:18.943Z,97326.53
2022-08-05T18:31:25.026Z,97337.78
2022-08-05T18:36:01.006Z,97339.91
2022-08-05T18:40:34.663Z,97345.31
2022-08-05T18:44:15.327Z,97354.19
2022-08-05T18:48:41.516Z,97372.38
2022-08-05T18:52:50.959Z,97376.41
2022-08-05T18:56:57.144Z,97391.56
2022-08-05T19:01:01.378Z,97392.41
2022-08-05T19:06:05.449Z,97397.25
2022-08-05T19:09:40.229Z,97404.53
2022-08-05T19:13:47.869Z,97412.59
2022-08-05T19:17:59.868Z,97420.66
2022-08-05T19:22:17.060Z,97430.28
2022-08-05T19:26:22.933Z,97436.22
2022-08-05T19:30:28.897Z,97435.22
2022-08-05T19:34:32.001Z,97437.94
2022-08-05T19:38:37.364Z,97444.47
2022-08-05T19:42:41.267Z,97453.63
2022-08-05T19:46:44.972Z,97456.34
2022-08-05T19:50:48.795Z,97457.78
2022-08-05T19:54:56.724Z,97466.16
2022-08-05T19:59:54.600Z,97469.19
2022-08-05T20:03:27.552Z,97473.84
2022-08-05T20:07:48.090Z,97477.69
2022-08-05T20:11:54.050Z,97472.38
2022-08-05T20:15:57.879Z,97476.75
2022-08-05T20:20:05.349Z,97468.22
2022-08-05T20:24:12.583Z,97459.44
2022-08-05T20:28:20.696Z,97456.81
2022-08-05T20:32:27.089Z,97450.44
2022-08-05T20:36:30.917Z,97459.63
2022-08-05T20:40:36.720Z,97463.66
2022-08-05T20:44:41.555Z,97470.63
2022-08-05T20:48:44.588Z,97476.00
2022-08-05T20:52:49.893Z,97487.28
2022-08-05T20:56:59.480Z,97491.03
2022-08-05T21:01:09.191Z,97488.34
2022-08-05T21:05:12.254Z,97488.91
2022-08-05T21:09:16.508Z,97496.94
2022-08-05T21:13:36.796Z,97477.66
2022-08-05T21:17:44.649Z,97483.31
2022-08-05T21:21:51.418Z,97476.38
2022-08-05T21:25:55.493Z,97474.50
2022-08-05T21:30:01.948Z,97481.53
2022-08-05T21:34:07.420Z,97472.16
2022-08-05T21:38:11.152Z,97473.28
2022-08-05T21:42:30.802Z,97482.13
2022-08-05T21:46:39.716Z,97479.22
2022-08-05T21:50:54.163Z,97474.69
2022-08-05T21:55:06.367Z,97480.56
2022-08-05T21:59:24.322Z,97479.50
2022-08-05T22:03:49.064Z,97486.97
2022-08-05T22:07:58.750Z,97493.91
2022-08-05T22:12:03.403Z,97503.03
2022-08-05T22:16:40.406Z,97504.34
2022-08-05T22:20:38.908Z,97507.28
2022-08-05T22:25:02.044Z,97510.47
2022-08-05T22:29:06.179Z,97504.59
2022-08-05T22:33:15.484Z,97512.13
2022-08-05T22:37:19.761Z,97514.50
2022-08-05T22:42:04.894Z,97509.19
2022-08-05T22:45:48.890Z,97515.59
2022-08-05T22:50:22.839Z,97527.09
2022-08-05T22:54:16.833Z,97530.81
2022-08-05T22:58:28.495Z,97535.09
2022-08-05T23:02:32.884Z,97551.69
2022-08-05T23:06:36.744Z,97556.50
2022-08-05T23:10:40.888Z,97568.25
2022-08-05T23:14:46.049Z,97578.94
2022-08-05T23:18:49.516Z,97602.47
2022-08-05T23:22:56.130Z,97637.47
2022-08-05T23:27:00.112Z,97651.88
2022-08-05T23:31:17.560Z,97669.00
2022-08-05T23:35:21.485Z,97682.59
2022-08-05T23:39:44.417Z,97685.66
2022-08-05T23:44:06.083Z,97701.53
2022-08-05T23:48:13.719Z,97702.59
2022-08-05T23:52:30.768Z,97705.81
2022-08-05T23:56:34.819Z,97706.34
